Estación de Chanco INIA

Ultimos registro cada 15 minutos 73
Estación Fecha / Hora Temperatura Humedad Lluvia Velocidad Dirección Radiación Presion
73 Chanco INIA 04-05-2026 18:00 14 89,7 0 0 0 8 1000
72 Chanco INIA 04-05-2026 17:45 14,9 87,9 0 0 0 24 1000
71 Chanco INIA 04-05-2026 17:30 15,5 85,4 0 0 0 47 1000
70 Chanco INIA 04-05-2026 17:15 15,7 83,9 0 0 0 73 1000
69 Chanco INIA 04-05-2026 17:00 15,7 82,8 0 0 0 88 1000
68 Chanco INIA 04-05-2026 16:45 16,2 82,6 0 0 0 123 1001
67 Chanco INIA 04-05-2026 16:30 16,9 80,2 0 0 215 192 1001
66 Chanco INIA 04-05-2026 16:15 17,2 79,4 0 0,4 209 233 1001
65 Chanco INIA 04-05-2026 16:00 17,9 79,7 0 1,6 212 283 1001
64 Chanco INIA 04-05-2026 15:45 20,5 70,6 0 0,3 223 317 1001
63 Chanco INIA 04-05-2026 15:30 20,3 62,8 0 0 0 415 1001
62 Chanco INIA 04-05-2026 15:15 19,6 65 0 0 0 357 1001
61 Chanco INIA 04-05-2026 15:00 19,2 68,5 0 0 0 533 1001
60 Chanco INIA 04-05-2026 14:45 18,8 73,6 0 0 0 343 1001
59 Chanco INIA 04-05-2026 14:30 18,3 74,1 0 0 0 237 1001
58 Chanco INIA 04-05-2026 14:15 18,6 73,9 0 0 0 277 1002
57 Chanco INIA 04-05-2026 14:00 18,4 72,1 0 0 0 427 1003
56 Chanco INIA 04-05-2026 13:45 17,8 74,4 0 0 0 406 1003
55 Chanco INIA 04-05-2026 13:30 17,5 76,8 0 0 0 382 1003
54 Chanco INIA 04-05-2026 13:15 16,9 77,9 0 0 0 489 1002
53 Chanco INIA 04-05-2026 13:00 16,3 81,4 0 0 0 257 1002
52 Chanco INIA 04-05-2026 12:45 16 84,8 0 0 0 269 1003
51 Chanco INIA 04-05-2026 12:30 15,4 89,5 0 0 0 240 1003
50 Chanco INIA 04-05-2026 12:15 15,1 92,5 0 0 0 182 1003
49 Chanco INIA 04-05-2026 12:00 15 94 0 0 0 170 1003
48 Chanco INIA 04-05-2026 11:45 14,7 96,5 0 0 0 202 1003
47 Chanco INIA 04-05-2026 11:30 14,4 98,8 0 0 0 185 1003
46 Chanco INIA 04-05-2026 11:15 14,4 99,6 0 0 0 145 1002
45 Chanco INIA 04-05-2026 11:00 14,5 99,9 0 0 0 195 1003
44 Chanco INIA 04-05-2026 10:45 14,1 100 0 0 0 165 1003
43 Chanco INIA 04-05-2026 10:30 13,9 100 0 0 0 116 1003
42 Chanco INIA 04-05-2026 10:15 13,7 100 0 0 0 118 1003
41 Chanco INIA 04-05-2026 10:00 13,6 100 0 0 0 92 1003
40 Chanco INIA 04-05-2026 09:45 13,6 100 0 0 0 82 1003
39 Chanco INIA 04-05-2026 09:30 13,6 100 0 0 0 75 1003
38 Chanco INIA 04-05-2026 09:15 13,5 100 0 0 0 60 1003
37 Chanco INIA 04-05-2026 09:00 13,3 100 0 0 0 57 1003
36 Chanco INIA 04-05-2026 08:45 13,1 100 0 0 0 55 1003
35 Chanco INIA 04-05-2026 08:30 13 100 0,1 0 0 45 1002
34 Chanco INIA 04-05-2026 08:15 12,8 100 0 0 0 37 1002
33 Chanco INIA 04-05-2026 08:00 12,7 100 0 0 0 9 1002
32 Chanco INIA 04-05-2026 07:45 12,7 100 0 0 0 4 1002
31 Chanco INIA 04-05-2026 07:30 12,6 100 0 0 0 1 1002
30 Chanco INIA 04-05-2026 07:15 12,6 100 0 0 0 0 1002
29 Chanco INIA 04-05-2026 07:00 12,5 100 0 0 0 0 1002
28 Chanco INIA 04-05-2026 06:45 12,5 100 0 0 0 0 1002
27 Chanco INIA 04-05-2026 06:30 12,4 100 0 0 0 1 1002
26 Chanco INIA 04-05-2026 06:15 12,4 100 0,1 0 0 1 1002
25 Chanco INIA 04-05-2026 06:00 12,4 100 0 0 0 1 1002
24 Chanco INIA 04-05-2026 05:45 12,4 100 0 0 0 1 1002
23 Chanco INIA 04-05-2026 05:30 12,3 100 0 0 0 1 1002
22 Chanco INIA 04-05-2026 05:15 12,3 100 0,1 0 0 1 1002
21 Chanco INIA 04-05-2026 05:00 12,3 100 0 0 0 1 1002
20 Chanco INIA 04-05-2026 04:45 12,5 100 0 0 0 1 1001
19 Chanco INIA 04-05-2026 04:30 12,5 100 0 0 0 1 1002
18 Chanco INIA 04-05-2026 04:15 12,6 100 0 0 0 1 1002
17 Chanco INIA 04-05-2026 04:00 12,6 100 0,1 0 0 0 1001
16 Chanco INIA 04-05-2026 03:45 12,5 100 0 0 0 0 1002
15 Chanco INIA 04-05-2026 03:30 12,6 100 0 0 0 0 1002
14 Chanco INIA 04-05-2026 03:15 12,7 100 0 0 0 0 1002
13 Chanco INIA 04-05-2026 03:00 13,1 100 0 0 0 0 1002
12 Chanco INIA 04-05-2026 02:45 13,4 100 0 0 0 0 1002
11 Chanco INIA 04-05-2026 02:30 13,6 100 0 0 0 0 1002
10 Chanco INIA 04-05-2026 02:15 13,7 100 0 0 0 0 1002
9 Chanco INIA 04-05-2026 02:00 13,7 100 0 0 0 0 1002
8 Chanco INIA 04-05-2026 01:45 13,7 100 0 0 0 0 1003
7 Chanco INIA 04-05-2026 01:30 13,7 100 0 0 0 0 1003
6 Chanco INIA 04-05-2026 01:15 13,9 100 0 0 0 0 1003
5 Chanco INIA 04-05-2026 01:00 14 100 0 0 0 0 1003
4 Chanco INIA 04-05-2026 00:45 14 100 0 0 0 0 1003
3 Chanco INIA 04-05-2026 00:30 14,1 100 0 0 0 0 1003
2 Chanco INIA 04-05-2026 00:15 14,1 100 0 0 0 0 1003
1 Chanco INIA 04-05-2026 00:00 14,1 100 0 0 0 0 1003